sensor_id;sensor_type;location;lat;lon;timestamp;P1;durP1;ratioP1;P2;durP2;ratioP2
51214;SDS011;63849;47.546;19.254;2023-03-23T00:01:24;22.23;;;16.17;;
51214;SDS011;63849;47.546;19.254;2023-03-23T00:03:52;24.30;;;15.20;;
51214;SDS011;63849;47.546;19.254;2023-03-23T00:06:22;24.02;;;14.98;;
51214;SDS011;63849;47.546;19.254;2023-03-23T00:08:49;21.95;;;15.18;;
51214;SDS011;63849;47.546;19.254;2023-03-23T00:11:22;21.63;;;15.38;;
51214;SDS011;63849;47.546;19.254;2023-03-23T00:13:51;19.02;;;13.80;;
51214;SDS011;63849;47.546;19.254;2023-03-23T00:16:18;19.23;;;14.18;;
51214;SDS011;63849;47.546;19.254;2023-03-23T00:19:02;19.02;;;13.38;;
51214;SDS011;63849;47.546;19.254;2023-03-23T00:21:33;19.10;;;13.70;;
51214;SDS011;63849;47.546;19.254;2023-03-23T00:24:14;18.13;;;13.50;;
51214;SDS011;63849;47.546;19.254;2023-03-23T00:26:42;17.38;;;12.55;;
51214;SDS011;63849;47.546;19.254;2023-03-23T00:29:14;21.48;;;13.98;;
51214;SDS011;63849;47.546;19.254;2023-03-23T00:31:47;17.00;;;12.80;;
51214;SDS011;63849;47.546;19.254;2023-03-23T00:34:14;20.70;;;13.77;;
51214;SDS011;63849;47.546;19.254;2023-03-23T00:36:45;21.08;;;13.70;;
51214;SDS011;63849;47.546;19.254;2023-03-23T00:39:13;17.67;;;12.75;;
51214;SDS011;63849;47.546;19.254;2023-03-23T00:41:41;20.35;;;13.52;;
51214;SDS011;63849;47.546;19.254;2023-03-23T00:44:11;21.98;;;13.75;;
51214;SDS011;63849;47.546;19.254;2023-03-23T00:46:42;17.50;;;13.40;;
51214;SDS011;63849;47.546;19.254;2023-03-23T00:49:14;19.25;;;13.00;;
51214;SDS011;63849;47.546;19.254;2023-03-23T00:51:42;18.23;;;13.63;;
51214;SDS011;63849;47.546;19.254;2023-03-23T00:54:08;17.27;;;13.15;;
51214;SDS011;63849;47.546;19.254;2023-03-23T00:56:34;17.23;;;12.77;;
51214;SDS011;63849;47.546;19.254;2023-03-23T00:59:00;19.38;;;14.18;;
51214;SDS011;63849;47.546;19.254;2023-03-23T01:01:26;21.35;;;15.52;;
51214;SDS011;63849;47.546;19.254;2023-03-23T01:03:52;22.02;;;16.33;;
51214;SDS011;63849;47.546;19.254;2023-03-23T01:06:26;25.90;;;18.63;;
51214;SDS011;63849;47.546;19.254;2023-03-23T01:08:53;27.77;;;19.38;;
51214;SDS011;63849;47.546;19.254;2023-03-23T01:11:19;28.75;;;21.13;;
51214;SDS011;63849;47.546;19.254;2023-03-23T01:13:45;27.38;;;20.65;;
51214;SDS011;63849;47.546;19.254;2023-03-23T01:16:12;26.45;;;19.65;;
51214;SDS011;63849;47.546;19.254;2023-03-23T01:18:38;26.00;;;18.27;;
51214;SDS011;63849;47.546;19.254;2023-03-23T01:21:09;26.75;;;19.13;;
51214;SDS011;63849;47.546;19.254;2023-03-23T01:23:36;25.05;;;17.60;;
51214;SDS011;63849;47.546;19.254;2023-03-23T01:26:03;24.83;;;18.60;;
51214;SDS011;63849;47.546;19.254;2023-03-23T01:28:32;27.00;;;18.45;;
51214;SDS011;63849;47.546;19.254;2023-03-23T01:31:03;27.52;;;20.02;;
51214;SDS011;63849;47.546;19.254;2023-03-23T01:33:31;27.70;;;18.98;;
51214;SDS011;63849;47.546;19.254;2023-03-23T01:35:57;28.05;;;21.63;;
51214;SDS011;63849;47.546;19.254;2023-03-23T01:38:27;26.02;;;19.52;;
51214;SDS011;63849;47.546;19.254;2023-03-23T01:40:53;21.88;;;16.75;;
51214;SDS011;63849;47.546;19.254;2023-03-23T01:43:19;22.77;;;17.38;;
51214;SDS011;63849;47.546;19.254;2023-03-23T01:45:45;23.42;;;17.63;;
51214;SDS011;63849;47.546;19.254;2023-03-23T01:51:07;19.58;;;15.30;;
51214;SDS011;63849;47.546;19.254;2023-03-23T01:53:48;20.55;;;15.25;;
51214;SDS011;63849;47.546;19.254;2023-03-23T01:56:19;18.45;;;14.27;;
51214;SDS011;63849;47.546;19.254;2023-03-23T01:58:52;21.52;;;15.20;;
51214;SDS011;63849;47.546;19.254;2023-03-23T02:01:20;19.48;;;15.02;;
51214;SDS011;63849;47.546;19.254;2023-03-23T02:03:46;18.73;;;15.40;;
51214;SDS011;63849;47.546;19.254;2023-03-23T02:06:13;21.35;;;14.70;;
51214;SDS011;63849;47.546;19.254;2023-03-23T02:08:40;18.55;;;15.10;;
51214;SDS011;63849;47.546;19.254;2023-03-23T02:11:18;21.73;;;15.60;;
51214;SDS011;63849;47.546;19.254;2023-03-23T02:13:46;20.35;;;14.93;;
51214;SDS011;63849;47.546;19.254;2023-03-23T02:22:02;18.08;;;14.30;;
51214;SDS011;63849;47.546;19.254;2023-03-23T02:24:56;18.48;;;15.13;;
51214;SDS011;63849;47.546;19.254;2023-03-23T02:33:28;20.58;;;14.95;;
51214;SDS011;63849;47.546;19.254;2023-03-23T02:36:05;20.35;;;14.90;;
51214;SDS011;63849;47.546;19.254;2023-03-23T02:41:31;19.75;;;15.10;;
51214;SDS011;63849;47.546;19.254;2023-03-23T02:44:02;19.17;;;14.48;;
51214;SDS011;63849;47.546;19.254;2023-03-23T02:46:29;19.23;;;14.77;;
51214;SDS011;63849;47.546;19.254;2023-03-23T02:48:57;20.83;;;14.25;;
51214;SDS011;63849;47.546;19.254;2023-03-23T02:51:25;20.10;;;14.77;;
51214;SDS011;63849;47.546;19.254;2023-03-23T02:53:53;17.70;;;14.45;;
51214;SDS011;63849;47.546;19.254;2023-03-23T02:56:22;19.25;;;14.88;;
51214;SDS011;63849;47.546;19.254;2023-03-23T02:58:50;20.27;;;15.27;;
51214;SDS011;63849;47.546;19.254;2023-03-23T03:01:47;24.70;;;15.65;;
51214;SDS011;63849;47.546;19.254;2023-03-23T03:04:35;22.08;;;15.32;;
51214;SDS011;63849;47.546;19.254;2023-03-23T03:07:20;20.60;;;14.95;;
51214;SDS011;63849;47.546;19.254;2023-03-23T03:10:04;23.92;;;14.77;;
51214;SDS011;63849;47.546;19.254;2023-03-23T03:20:48;19.85;;;14.38;;
51214;SDS011;63849;47.546;19.254;2023-03-23T03:23:23;19.73;;;13.90;;
51214;SDS011;63849;47.546;19.254;2023-03-23T03:25:50;18.38;;;13.60;;
51214;SDS011;63849;47.546;19.254;2023-03-23T03:28:21;21.83;;;13.98;;
51214;SDS011;63849;47.546;19.254;2023-03-23T03:30:49;20.25;;;14.23;;
51214;SDS011;63849;47.546;19.254;2023-03-23T03:33:19;24.13;;;15.02;;
51214;SDS011;63849;47.546;19.254;2023-03-23T03:35:51;21.33;;;14.52;;
51214;SDS011;63849;47.546;19.254;2023-03-23T03:38:20;20.55;;;14.63;;
51214;SDS011;63849;47.546;19.254;2023-03-23T03:40:46;22.70;;;14.75;;
51214;SDS011;63849;47.546;19.254;2023-03-23T03:43:12;23.13;;;14.13;;
51214;SDS011;63849;47.546;19.254;2023-03-23T03:45:38;18.85;;;13.65;;
51214;SDS011;63849;47.546;19.254;2023-03-23T03:48:04;20.92;;;14.48;;
51214;SDS011;63849;47.546;19.254;2023-03-23T03:50:30;20.08;;;14.20;;
51214;SDS011;63849;47.546;19.254;2023-03-23T03:52:57;19.75;;;13.70;;
51214;SDS011;63849;47.546;19.254;2023-03-23T03:55:23;20.85;;;13.00;;
51214;SDS011;63849;47.546;19.254;2023-03-23T03:57:49;18.27;;;12.77;;
51214;SDS011;63849;47.546;19.254;2023-03-23T04:00:15;17.52;;;12.77;;
51214;SDS011;63849;47.546;19.254;2023-03-23T04:02:44;19.60;;;13.73;;
51214;SDS011;63849;47.546;19.254;2023-03-23T04:05:16;17.33;;;13.07;;
51214;SDS011;63849;47.546;19.254;2023-03-23T04:07:43;19.40;;;12.90;;
51214;SDS011;63849;47.546;19.254;2023-03-23T04:10:11;16.42;;;11.93;;
51214;SDS011;63849;47.546;19.254;2023-03-23T04:12:38;17.70;;;12.30;;
51214;SDS011;63849;47.546;19.254;2023-03-23T04:15:07;17.80;;;12.65;;
51214;SDS011;63849;47.546;19.254;2023-03-23T04:17:34;17.90;;;12.63;;
51214;SDS011;63849;47.546;19.254;2023-03-23T04:20:00;19.42;;;13.23;;
51214;SDS011;63849;47.546;19.254;2023-03-23T04:22:32;18.50;;;12.15;;
51214;SDS011;63849;47.546;19.254;2023-03-23T04:24:58;18.20;;;12.23;;
51214;SDS011;63849;47.546;19.254;2023-03-23T04:27:27;16.58;;;11.93;;
51214;SDS011;63849;47.546;19.254;2023-03-23T04:29:56;14.85;;;11.05;;
51214;SDS011;63849;47.546;19.254;2023-03-23T04:32:26;15.02;;;11.60;;
51214;SDS011;63849;47.546;19.254;2023-03-23T04:34:57;17.15;;;11.63;;
51214;SDS011;63849;47.546;19.254;2023-03-23T04:37:24;17.88;;;12.13;;
51214;SDS011;63849;47.546;19.254;2023-03-23T04:39:56;21.45;;;12.02;;
51214;SDS011;63849;47.546;19.254;2023-03-23T04:42:27;14.83;;;10.90;;
51214;SDS011;63849;47.546;19.254;2023-03-23T04:44:53;19.13;;;12.40;;
51214;SDS011;63849;47.546;19.254;2023-03-23T04:47:20;16.63;;;11.82;;
51214;SDS011;63849;47.546;19.254;2023-03-23T04:49:46;18.67;;;12.63;;
51214;SDS011;63849;47.546;19.254;2023-03-23T04:52:12;19.45;;;12.05;;
51214;SDS011;63849;47.546;19.254;2023-03-23T04:54:39;16.30;;;12.15;;
51214;SDS011;63849;47.546;19.254;2023-03-23T04:57:05;20.15;;;11.65;;
51214;SDS011;63849;47.546;19.254;2023-03-23T04:59:33;15.02;;;10.95;;
51214;SDS011;63849;47.546;19.254;2023-03-23T05:01:59;16.45;;;11.60;;
51214;SDS011;63849;47.546;19.254;2023-03-23T05:04:25;15.85;;;11.20;;
51214;SDS011;63849;47.546;19.254;2023-03-23T05:06:51;16.65;;;11.68;;
51214;SDS011;63849;47.546;19.254;2023-03-23T05:09:17;15.52;;;10.93;;
51214;SDS011;63849;47.546;19.254;2023-03-23T05:11:43;16.58;;;11.57;;
51214;SDS011;63849;47.546;19.254;2023-03-23T05:14:08;18.20;;;11.70;;
51214;SDS011;63849;47.546;19.254;2023-03-23T05:16:35;19.00;;;11.43;;
51214;SDS011;63849;47.546;19.254;2023-03-23T05:19:03;18.20;;;12.07;;
51214;SDS011;63849;47.546;19.254;2023-03-23T05:21:30;18.45;;;12.57;;
51214;SDS011;63849;47.546;19.254;2023-03-23T05:23:59;17.25;;;12.40;;
51214;SDS011;63849;47.546;19.254;2023-03-23T05:26:25;18.05;;;11.80;;
51214;SDS011;63849;47.546;19.254;2023-03-23T05:28:55;18.40;;;12.00;;
51214;SDS011;63849;47.546;19.254;2023-03-23T05:31:21;18.55;;;12.25;;
51214;SDS011;63849;47.546;19.254;2023-03-23T05:33:49;15.40;;;11.75;;
51214;SDS011;63849;47.546;19.254;2023-03-23T05:36:15;14.55;;;11.10;;
51214;SDS011;63849;47.546;19.254;2023-03-23T05:38:41;12.75;;;10.10;;
51214;SDS011;63849;47.546;19.254;2023-03-23T05:41:13;15.63;;;10.57;;
51214;SDS011;63849;47.546;19.254;2023-03-23T05:43:40;14.18;;;11.20;;
51214;SDS011;63849;47.546;19.254;2023-03-23T05:46:06;12.63;;;9.25;;
51214;SDS011;63849;47.546;19.254;2023-03-23T05:48:33;14.02;;;10.13;;
51214;SDS011;63849;47.546;19.254;2023-03-23T05:50:59;12.85;;;9.63;;
51214;SDS011;63849;47.546;19.254;2023-03-23T05:53:25;13.95;;;10.13;;
51214;SDS011;63849;47.546;19.254;2023-03-23T05:55:51;13.45;;;10.10;;
51214;SDS011;63849;47.546;19.254;2023-03-23T05:58:18;17.52;;;11.45;;
51214;SDS011;63849;47.546;19.254;2023-03-23T06:00:44;16.45;;;11.02;;
51214;SDS011;63849;47.546;19.254;2023-03-23T06:03:11;15.65;;;10.05;;
51214;SDS011;63849;47.546;19.254;2023-03-23T06:05:41;13.25;;;10.65;;
51214;SDS011;63849;47.546;19.254;2023-03-23T06:08:09;13.52;;;9.98;;
51214;SDS011;63849;47.546;19.254;2023-03-23T06:10:35;13.98;;;10.20;;
51214;SDS011;63849;47.546;19.254;2023-03-23T06:13:01;15.02;;;10.45;;
51214;SDS011;63849;47.546;19.254;2023-03-23T06:15:28;12.10;;;9.80;;
51214;SDS011;63849;47.546;19.254;2023-03-23T06:17:59;15.18;;;10.00;;
51214;SDS011;63849;47.546;19.254;2023-03-23T06:20:30;13.38;;;10.23;;
51214;SDS011;63849;47.546;19.254;2023-03-23T06:23:00;13.07;;;9.95;;
51214;SDS011;63849;47.546;19.254;2023-03-23T06:25:28;12.00;;;9.43;;
51214;SDS011;63849;47.546;19.254;2023-03-23T06:27:54;13.15;;;11.18;;
51214;SDS011;63849;47.546;19.254;2023-03-23T06:30:20;13.63;;;11.90;;
51214;SDS011;63849;47.546;19.254;2023-03-23T06:32:46;14.77;;;12.30;;
51214;SDS011;63849;47.546;19.254;2023-03-23T06:35:12;15.57;;;11.52;;
51214;SDS011;63849;47.546;19.254;2023-03-23T06:37:39;15.15;;;10.60;;
51214;SDS011;63849;47.546;19.254;2023-03-23T06:40:05;13.02;;;11.63;;
51214;SDS011;63849;47.546;19.254;2023-03-23T06:42:32;15.73;;;11.07;;
51214;SDS011;63849;47.546;19.254;2023-03-23T06:44:58;14.48;;;10.80;;
51214;SDS011;63849;47.546;19.254;2023-03-23T06:47:26;16.83;;;11.90;;
51214;SDS011;63849;47.546;19.254;2023-03-23T06:49:54;14.40;;;11.35;;
51214;SDS011;63849;47.546;19.254;2023-03-23T06:52:21;14.43;;;11.35;;
51214;SDS011;63849;47.546;19.254;2023-03-23T06:54:48;12.65;;;11.13;;
51214;SDS011;63849;47.546;19.254;2023-03-23T06:57:18;14.70;;;10.60;;
51214;SDS011;63849;47.546;19.254;2023-03-23T06:59:44;12.10;;;10.88;;
51214;SDS011;63849;47.546;19.254;2023-03-23T07:02:13;12.88;;;10.88;;
51214;SDS011;63849;47.546;19.254;2023-03-23T07:04:40;11.85;;;10.48;;
51214;SDS011;63849;47.546;19.254;2023-03-23T07:07:10;15.63;;;11.07;;
51214;SDS011;63849;47.546;19.254;2023-03-23T07:09:39;12.48;;;9.50;;
51214;SDS011;63849;47.546;19.254;2023-03-23T07:12:06;13.82;;;10.40;;
51214;SDS011;63849;47.546;19.254;2023-03-23T07:14:32;13.80;;;10.65;;
51214;SDS011;63849;47.546;19.254;2023-03-23T07:17:02;14.40;;;10.73;;
51214;SDS011;63849;47.546;19.254;2023-03-23T07:19:28;16.05;;;10.77;;
51214;SDS011;63849;47.546;19.254;2023-03-23T07:21:54;12.90;;;10.93;;
51214;SDS011;63849;47.546;19.254;2023-03-23T07:24:22;14.13;;;10.40;;
51214;SDS011;63849;47.546;19.254;2023-03-23T07:26:50;14.00;;;11.85;;
51214;SDS011;63849;47.546;19.254;2023-03-23T07:29:19;12.45;;;10.98;;
51214;SDS011;63849;47.546;19.254;2023-03-23T07:31:48;15.27;;;11.73;;
51214;SDS011;63849;47.546;19.254;2023-03-23T07:34:14;12.02;;;10.73;;
51214;SDS011;63849;47.546;19.254;2023-03-23T07:36:40;13.50;;;11.80;;
51214;SDS011;63849;47.546;19.254;2023-03-23T07:39:06;14.82;;;11.35;;
51214;SDS011;63849;47.546;19.254;2023-03-23T07:41:32;14.75;;;11.68;;
51214;SDS011;63849;47.546;19.254;2023-03-23T07:43:59;14.02;;;10.95;;
51214;SDS011;63849;47.546;19.254;2023-03-23T07:46:25;15.38;;;10.27;;
51214;SDS011;63849;47.546;19.254;2023-03-23T07:48:51;14.60;;;11.27;;
51214;SDS011;63849;47.546;19.254;2023-03-23T07:51:17;14.93;;;11.98;;
51214;SDS011;63849;47.546;19.254;2023-03-23T07:53:43;12.25;;;11.00;;
51214;SDS011;63849;47.546;19.254;2023-03-23T07:56:12;13.57;;;11.20;;
51214;SDS011;63849;47.546;19.254;2023-03-23T07:58:40;13.70;;;10.77;;
51214;SDS011;63849;47.546;19.254;2023-03-23T08:01:06;12.32;;;10.85;;
51214;SDS011;63849;47.546;19.254;2023-03-23T08:03:33;14.68;;;11.93;;
51214;SDS011;63849;47.546;19.254;2023-03-23T08:05:59;15.90;;;10.98;;
51214;SDS011;63849;47.546;19.254;2023-03-23T08:08:25;12.98;;;11.10;;
51214;SDS011;63849;47.546;19.254;2023-03-23T08:10:51;14.73;;;11.85;;
51214;SDS011;63849;47.546;19.254;2023-03-23T08:13:17;14.00;;;11.85;;
51214;SDS011;63849;47.546;19.254;2023-03-23T08:15:43;13.25;;;10.43;;
51214;SDS011;63849;47.546;19.254;2023-03-23T08:18:10;15.00;;;11.23;;
51214;SDS011;63849;47.546;19.254;2023-03-23T08:20:36;13.85;;;10.82;;
51214;SDS011;63849;47.546;19.254;2023-03-23T08:23:03;14.60;;;11.63;;
51214;SDS011;63849;47.546;19.254;2023-03-23T08:25:29;15.68;;;11.90;;
51214;SDS011;63849;47.546;19.254;2023-03-23T08:27:59;13.95;;;11.07;;
51214;SDS011;63849;47.546;19.254;2023-03-23T08:30:26;13.82;;;11.48;;
51214;SDS011;63849;47.546;19.254;2023-03-23T08:32:55;12.23;;;10.85;;
51214;SDS011;63849;47.546;19.254;2023-03-23T08:35:22;14.77;;;10.32;;
51214;SDS011;63849;47.546;19.254;2023-03-23T08:37:48;10.93;;;9.02;;
51214;SDS011;63849;47.546;19.254;2023-03-23T08:40:20;14.48;;;10.05;;
51214;SDS011;63849;47.546;19.254;2023-03-23T08:42:47;13.80;;;9.85;;
51214;SDS011;63849;47.546;19.254;2023-03-23T08:45:15;12.32;;;9.50;;
51214;SDS011;63849;47.546;19.254;2023-03-23T08:47:44;12.45;;;10.27;;
51214;SDS011;63849;47.546;19.254;2023-03-23T08:50:12;11.85;;;9.77;;
51214;SDS011;63849;47.546;19.254;2023-03-23T08:52:40;10.45;;;9.35;;
51214;SDS011;63849;47.546;19.254;2023-03-23T08:55:06;14.70;;;9.10;;
51214;SDS011;63849;47.546;19.254;2023-03-23T08:57:33;12.52;;;9.27;;
51214;SDS011;63849;47.546;19.254;2023-03-23T09:00:02;10.23;;;8.40;;
51214;SDS011;63849;47.546;19.254;2023-03-23T09:02:39;11.55;;;9.27;;
51214;SDS011;63849;47.546;19.254;2023-03-23T09:05:05;10.95;;;8.27;;
51214;SDS011;63849;47.546;19.254;2023-03-23T09:07:32;12.80;;;8.98;;
51214;SDS011;63849;47.546;19.254;2023-03-23T09:09:57;12.32;;;8.48;;
51214;SDS011;63849;47.546;19.254;2023-03-23T09:12:23;10.98;;;7.88;;
51214;SDS011;63849;47.546;19.254;2023-03-23T09:14:49;11.65;;;6.88;;
51214;SDS011;63849;47.546;19.254;2023-03-23T09:17:15;8.65;;;7.18;;
51214;SDS011;63849;47.546;19.254;2023-03-23T09:19:40;9.65;;;7.80;;
51214;SDS011;63849;47.546;19.254;2023-03-23T09:22:07;9.88;;;7.07;;
51214;SDS011;63849;47.546;19.254;2023-03-23T09:24:33;8.65;;;7.32;;
51214;SDS011;63849;47.546;19.254;2023-03-23T09:26:59;9.48;;;7.07;;
51214;SDS011;63849;47.546;19.254;2023-03-23T09:29:26;8.65;;;6.88;;
51214;SDS011;63849;47.546;19.254;2023-03-23T09:31:52;6.75;;;6.13;;
51214;SDS011;63849;47.546;19.254;2023-03-23T09:34:19;7.47;;;6.47;;
51214;SDS011;63849;47.546;19.254;2023-03-23T09:36:45;9.38;;;7.60;;
51214;SDS011;63849;47.546;19.254;2023-03-23T09:39:11;10.05;;;7.20;;
51214;SDS011;63849;47.546;19.254;2023-03-23T09:47:41;7.07;;;6.20;;
51214;SDS011;63849;47.546;19.254;2023-03-23T09:52:35;10.27;;;6.28;;
51214;SDS011;63849;47.546;19.254;2023-03-23T09:55:09;8.35;;;6.95;;
51214;SDS011;63849;47.546;19.254;2023-03-23T10:00:22;9.50;;;6.28;;
51214;SDS011;63849;47.546;19.254;2023-03-23T10:03:02;9.60;;;6.10;;
51214;SDS011;63849;47.546;19.254;2023-03-23T10:05:44;5.50;;;4.82;;
51214;SDS011;63849;47.546;19.254;2023-03-23T10:08:16;8.63;;;5.85;;
51214;SDS011;63849;47.546;19.254;2023-03-23T10:16:11;6.53;;;4.50;;
51214;SDS011;63849;47.546;19.254;2023-03-23T10:18:54;5.57;;;4.07;;
51214;SDS011;63849;47.546;19.254;2023-03-23T10:21:30;6.13;;;3.88;;
51214;SDS011;63849;47.546;19.254;2023-03-23T10:24:03;7.13;;;4.28;;
51214;SDS011;63849;47.546;19.254;2023-03-23T10:31:40;6.05;;;2.92;;
51214;SDS011;63849;47.546;19.254;2023-03-23T10:42:27;5.18;;;2.55;;
51214;SDS011;63849;47.546;19.254;2023-03-23T10:44:59;6.60;;;2.83;;
51214;SDS011;63849;47.546;19.254;2023-03-23T10:47:33;5.78;;;2.90;;
51214;SDS011;63849;47.546;19.254;2023-03-23T10:50:04;6.28;;;3.05;;
51214;SDS011;63849;47.546;19.254;2023-03-23T10:52:37;4.63;;;2.75;;
51214;SDS011;63849;47.546;19.254;2023-03-23T10:55:09;4.30;;;3.38;;
51214;SDS011;63849;47.546;19.254;2023-03-23T10:57:41;2.90;;;2.63;;
51214;SDS011;63849;47.546;19.254;2023-03-23T11:03:03;3.08;;;2.53;;
51214;SDS011;63849;47.546;19.254;2023-03-23T11:05:37;3.28;;;2.97;;
51214;SDS011;63849;47.546;19.254;2023-03-23T11:08:13;6.38;;;3.03;;
51214;SDS011;63849;47.546;19.254;2023-03-23T11:13:37;7.05;;;3.13;;
51214;SDS011;63849;47.546;19.254;2023-03-23T11:16:21;3.42;;;2.90;;
51214;SDS011;63849;47.546;19.254;2023-03-23T11:18:53;5.78;;;2.65;;
51214;SDS011;63849;47.546;19.254;2023-03-23T11:21:20;2.70;;;2.17;;
51214;SDS011;63849;47.546;19.254;2023-03-23T11:23:52;5.03;;;2.90;;
51214;SDS011;63849;47.546;19.254;2023-03-23T11:26:27;5.30;;;2.78;;
51214;SDS011;63849;47.546;19.254;2023-03-23T11:31:28;4.15;;;2.40;;
51214;SDS011;63849;47.546;19.254;2023-03-23T11:36:29;3.67;;;2.45;;
51214;SDS011;63849;47.546;19.254;2023-03-23T11:39:00;3.78;;;2.75;;
51214;SDS011;63849;47.546;19.254;2023-03-23T11:41:34;3.88;;;2.78;;
51214;SDS011;63849;47.546;19.254;2023-03-23T11:44:04;8.10;;;3.35;;
51214;SDS011;63849;47.546;19.254;2023-03-23T11:46:39;3.38;;;2.70;;
51214;SDS011;63849;47.546;19.254;2023-03-23T11:49:36;5.90;;;3.28;;
51214;SDS011;63849;47.546;19.254;2023-03-23T11:52:57;4.97;;;3.20;;
51214;SDS011;63849;47.546;19.254;2023-03-23T11:58:18;4.47;;;2.67;;
51214;SDS011;63849;47.546;19.254;2023-03-23T12:00:56;5.22;;;2.78;;
51214;SDS011;63849;47.546;19.254;2023-03-23T12:03:43;4.90;;;2.72;;
51214;SDS011;63849;47.546;19.254;2023-03-23T12:06:22;4.28;;;3.17;;
51214;SDS011;63849;47.546;19.254;2023-03-23T12:09:09;3.45;;;2.67;;
51214;SDS011;63849;47.546;19.254;2023-03-23T12:29:34;5.03;;;2.58;;
51214;SDS011;63849;47.546;19.254;2023-03-23T12:35:08;3.03;;;2.70;;
51214;SDS011;63849;47.546;19.254;2023-03-23T12:37:48;5.90;;;2.97;;
51214;SDS011;63849;47.546;19.254;2023-03-23T12:45:55;4.20;;;2.67;;
51214;SDS011;63849;47.546;19.254;2023-03-23T12:48:37;4.70;;;2.65;;
51214;SDS011;63849;47.546;19.254;2023-03-23T12:51:15;10.00;;;3.10;;
51214;SDS011;63849;47.546;19.254;2023-03-23T13:01:48;4.35;;;2.30;;
51214;SDS011;63849;47.546;19.254;2023-03-23T13:04:24;6.78;;;2.97;;
51214;SDS011;63849;47.546;19.254;2023-03-23T13:06:55;7.53;;;3.10;;
51214;SDS011;63849;47.546;19.254;2023-03-23T13:12:10;4.53;;;2.78;;
51214;SDS011;63849;47.546;19.254;2023-03-23T13:14:59;4.40;;;2.42;;
51214;SDS011;63849;47.546;19.254;2023-03-23T13:17:39;4.25;;;2.70;;
51214;SDS011;63849;47.546;19.254;2023-03-23T13:28:28;4.72;;;2.40;;
51214;SDS011;63849;47.546;19.254;2023-03-23T13:33:36;4.20;;;2.22;;
51214;SDS011;63849;47.546;19.254;2023-03-23T13:36:12;6.50;;;2.67;;
51214;SDS011;63849;47.546;19.254;2023-03-23T13:38:47;8.02;;;2.95;;
51214;SDS011;63849;47.546;19.254;2023-03-23T13:41:15;7.43;;;3.35;;
51214;SDS011;63849;47.546;19.254;2023-03-23T13:43:45;7.28;;;2.88;;
51214;SDS011;63849;47.546;19.254;2023-03-23T13:48:49;3.33;;;2.35;;
51214;SDS011;63849;47.546;19.254;2023-03-23T13:51:46;5.13;;;2.60;;
51214;SDS011;63849;47.546;19.254;2023-03-23T13:54:28;2.95;;;2.38;;
51214;SDS011;63849;47.546;19.254;2023-03-23T13:57:00;3.05;;;2.42;;
51214;SDS011;63849;47.546;19.254;2023-03-23T13:59:32;5.30;;;3.10;;
51214;SDS011;63849;47.546;19.254;2023-03-23T14:05:08;4.25;;;2.83;;
51214;SDS011;63849;47.546;19.254;2023-03-23T14:07:54;3.03;;;2.70;;
51214;SDS011;63849;47.546;19.254;2023-03-23T14:10:25;4.63;;;2.70;;
51214;SDS011;63849;47.546;19.254;2023-03-23T14:13:16;3.67;;;2.67;;
51214;SDS011;63849;47.546;19.254;2023-03-23T14:15:57;6.50;;;3.03;;
51214;SDS011;63849;47.546;19.254;2023-03-23T14:18:34;3.92;;;2.72;;
51214;SDS011;63849;47.546;19.254;2023-03-23T14:23:30;3.08;;;2.60;;
51214;SDS011;63849;47.546;19.254;2023-03-23T14:26:16;2.97;;;2.65;;
51214;SDS011;63849;47.546;19.254;2023-03-23T14:28:44;5.93;;;2.53;;
51214;SDS011;63849;47.546;19.254;2023-03-23T14:33:49;3.95;;;3.28;;
51214;SDS011;63849;47.546;19.254;2023-03-23T14:36:20;6.15;;;3.05;;
51214;SDS011;63849;47.546;19.254;2023-03-23T14:39:00;8.32;;;2.97;;
51214;SDS011;63849;47.546;19.254;2023-03-23T14:41:37;7.72;;;2.90;;
51214;SDS011;63849;47.546;19.254;2023-03-23T14:44:05;6.05;;;2.38;;
51214;SDS011;63849;47.546;19.254;2023-03-23T14:46:34;5.85;;;2.90;;
51214;SDS011;63849;47.546;19.254;2023-03-23T14:49:04;3.78;;;2.50;;
51214;SDS011;63849;47.546;19.254;2023-03-23T14:51:31;4.20;;;2.50;;
51214;SDS011;63849;47.546;19.254;2023-03-23T14:53:58;6.20;;;2.83;;
51214;SDS011;63849;47.546;19.254;2023-03-23T14:56:32;3.95;;;2.80;;
51214;SDS011;63849;47.546;19.254;2023-03-23T14:59:05;5.20;;;3.00;;
51214;SDS011;63849;47.546;19.254;2023-03-23T15:01:35;4.65;;;3.08;;
51214;SDS011;63849;47.546;19.254;2023-03-23T15:04:13;9.20;;;2.85;;
51214;SDS011;63849;47.546;19.254;2023-03-23T15:06:43;5.45;;;3.28;;
51214;SDS011;63849;47.546;19.254;2023-03-23T15:09:17;3.92;;;2.55;;
51214;SDS011;63849;47.546;19.254;2023-03-23T15:11:51;4.38;;;2.67;;
51214;SDS011;63849;47.546;19.254;2023-03-23T15:14:29;3.42;;;2.55;;
51214;SDS011;63849;47.546;19.254;2023-03-23T15:17:30;4.47;;;3.05;;
51214;SDS011;63849;47.546;19.254;2023-03-23T15:20:00;4.30;;;3.10;;
51214;SDS011;63849;47.546;19.254;2023-03-23T15:22:45;4.07;;;2.30;;
51214;SDS011;63849;47.546;19.254;2023-03-23T15:25:20;5.75;;;3.17;;
51214;SDS011;63849;47.546;19.254;2023-03-23T15:30:51;4.57;;;3.00;;
51214;SDS011;63849;47.546;19.254;2023-03-23T15:33:19;7.45;;;2.80;;
51214;SDS011;63849;47.546;19.254;2023-03-23T15:35:51;4.23;;;3.07;;
51214;SDS011;63849;47.546;19.254;2023-03-23T15:38:25;2.70;;;2.50;;
51214;SDS011;63849;47.546;19.254;2023-03-23T15:41:05;4.57;;;2.80;;
51214;SDS011;63849;47.546;19.254;2023-03-23T15:43:49;5.03;;;2.53;;
51214;SDS011;63849;47.546;19.254;2023-03-23T15:46:23;5.10;;;2.40;;
51214;SDS011;63849;47.546;19.254;2023-03-23T15:51:26;3.08;;;2.38;;
51214;SDS011;63849;47.546;19.254;2023-03-23T15:53:53;3.67;;;2.67;;
51214;SDS011;63849;47.546;19.254;2023-03-23T15:56:20;5.28;;;2.30;;
51214;SDS011;63849;47.546;19.254;2023-03-23T15:58:47;12.30;;;5.70;;
51214;SDS011;63849;47.546;19.254;2023-03-23T16:01:15;15.43;;;7.28;;
51214;SDS011;63849;47.546;19.254;2023-03-23T16:03:47;4.28;;;3.22;;
51214;SDS011;63849;47.546;19.254;2023-03-23T16:06:17;3.55;;;2.53;;
51214;SDS011;63849;47.546;19.254;2023-03-23T16:08:47;2.60;;;2.38;;
51214;SDS011;63849;47.546;19.254;2023-03-23T16:11:13;6.28;;;3.30;;
51214;SDS011;63849;47.546;19.254;2023-03-23T16:13:41;7.60;;;2.95;;
51214;SDS011;63849;47.546;19.254;2023-03-23T16:16:13;6.15;;;2.92;;
51214;SDS011;63849;47.546;19.254;2023-03-23T16:21:05;5.90;;;2.47;;
51214;SDS011;63849;47.546;19.254;2023-03-23T16:23:32;3.50;;;2.70;;
51214;SDS011;63849;47.546;19.254;2023-03-23T16:25:57;5.53;;;2.95;;
51214;SDS011;63849;47.546;19.254;2023-03-23T16:28:23;4.40;;;3.08;;
51214;SDS011;63849;47.546;19.254;2023-03-23T16:30:49;9.82;;;3.00;;
51214;SDS011;63849;47.546;19.254;2023-03-23T16:33:15;4.70;;;3.10;;
51214;SDS011;63849;47.546;19.254;2023-03-23T16:35:41;5.07;;;3.50;;
51214;SDS011;63849;47.546;19.254;2023-03-23T16:38:09;6.55;;;3.08;;
51214;SDS011;63849;47.546;19.254;2023-03-23T16:40:41;5.13;;;2.90;;
51214;SDS011;63849;47.546;19.254;2023-03-23T16:43:08;4.75;;;2.72;;
51214;SDS011;63849;47.546;19.254;2023-03-23T16:45:38;8.60;;;3.00;;
51214;SDS011;63849;47.546;19.254;2023-03-23T16:48:06;4.93;;;2.70;;
51214;SDS011;63849;47.546;19.254;2023-03-23T16:50:33;7.07;;;5.18;;
51214;SDS011;63849;47.546;19.254;2023-03-23T16:53:00;12.02;;;6.35;;